sensor_id;sensor_type;location;lat;lon;timestamp;temperature;humidity
6270;DHT22;3168;51.684;6.954;2023-09-19T00:00:55;16.40;1.00
6270;DHT22;3168;51.684;6.954;2023-09-19T00:03:18;16.30;1.00
6270;DHT22;3168;51.684;6.954;2023-09-19T00:05:44;16.30;1.00
6270;DHT22;3168;51.684;6.954;2023-09-19T00:08:10;16.40;1.00
6270;DHT22;3168;51.684;6.954;2023-09-19T00:10:36;16.30;1.00
6270;DHT22;3168;51.684;6.954;2023-09-19T00:13:02;16.30;1.00
6270;DHT22;3168;51.684;6.954;2023-09-19T00:15:29;16.20;1.00
6270;DHT22;3168;51.684;6.954;2023-09-19T00:17:55;16.20;1.00
6270;DHT22;3168;51.684;6.954;2023-09-19T00:20:20;16.30;1.00
6270;DHT22;3168;51.684;6.954;2023-09-19T00:22:46;16.20;1.00
6270;DHT22;3168;51.684;6.954;2023-09-19T00:25:12;16.30;1.00
6270;DHT22;3168;51.684;6.954;2023-09-19T00:27:38;16.20;1.00
6270;DHT22;3168;51.684;6.954;2023-09-19T00:30:07;16.20;1.00
6270;DHT22;3168;51.684;6.954;2023-09-19T00:32:33;16.20;1.00
6270;DHT22;3168;51.684;6.954;2023-09-19T00:34:59;16.30;1.00
6270;DHT22;3168;51.684;6.954;2023-09-19T00:37:24;16.30;1.00
6270;DHT22;3168;51.684;6.954;2023-09-19T00:39:51;16.20;1.00
6270;DHT22;3168;51.684;6.954;2023-09-19T00:42:20;16.20;1.00
6270;DHT22;3168;51.684;6.954;2023-09-19T00:44:45;16.20;1.00
6270;DHT22;3168;51.684;6.954;2023-09-19T00:47:11;16.30;1.00
6270;DHT22;3168;51.684;6.954;2023-09-19T00:49:37;16.30;1.00
6270;DHT22;3168;51.684;6.954;2023-09-19T00:52:03;16.20;1.00
6270;DHT22;3168;51.684;6.954;2023-09-19T00:54:29;16.30;1.00
6270;DHT22;3168;51.684;6.954;2023-09-19T00:56:55;16.40;1.00
6270;DHT22;3168;51.684;6.954;2023-09-19T00:59:22;16.40;1.00
6270;DHT22;3168;51.684;6.954;2023-09-19T01:01:48;16.30;1.00
6270;DHT22;3168;51.684;6.954;2023-09-19T01:04:13;16.20;1.00
6270;DHT22;3168;51.684;6.954;2023-09-19T01:06:39;16.10;1.00
6270;DHT22;3168;51.684;6.954;2023-09-19T01:09:05;16.10;1.00
6270;DHT22;3168;51.684;6.954;2023-09-19T01:11:33;16.10;1.00
6270;DHT22;3168;51.684;6.954;2023-09-19T01:14:51;16.00;1.00
6270;DHT22;3168;51.684;6.954;2023-09-19T01:17:00;16.20;1.00
6270;DHT22;3168;51.684;6.954;2023-09-19T01:22:21;16.10;1.00
6270;DHT22;3168;51.684;6.954;2023-09-19T01:24:55;16.20;1.00
6270;DHT22;3168;51.684;6.954;2023-09-19T01:28:15;16.10;1.00
6270;DHT22;3168;51.684;6.954;2023-09-19T01:30:22;16.00;1.00
6270;DHT22;3168;51.684;6.954;2023-09-19T01:32:50;15.90;1.00
6270;DHT22;3168;51.684;6.954;2023-09-19T01:35:16;15.80;1.00
6270;DHT22;3168;51.684;6.954;2023-09-19T01:37:41;15.80;1.00
6270;DHT22;3168;51.684;6.954;2023-09-19T01:40:08;15.80;1.00
6270;DHT22;3168;51.684;6.954;2023-09-19T01:42:41;15.70;1.00
6270;DHT22;3168;51.684;6.954;2023-09-19T01:45:08;15.70;1.00
6270;DHT22;3168;51.684;6.954;2023-09-19T01:47:41;15.70;1.00
6270;DHT22;3168;51.684;6.954;2023-09-19T01:50:34;15.70;1.00
6270;DHT22;3168;51.684;6.954;2023-09-19T01:53:03;15.60;1.00
6270;DHT22;3168;51.684;6.954;2023-09-19T01:55:27;15.60;1.00
6270;DHT22;3168;51.684;6.954;2023-09-19T01:57:58;15.50;1.00
6270;DHT22;3168;51.684;6.954;2023-09-19T02:00:20;15.50;1.00
6270;DHT22;3168;51.684;6.954;2023-09-19T02:02:46;15.60;1.00
6270;DHT22;3168;51.684;6.954;2023-09-19T02:05:12;15.60;1.00
6270;DHT22;3168;51.684;6.954;2023-09-19T02:07:38;15.50;1.00
6270;DHT22;3168;51.684;6.954;2023-09-19T02:10:05;15.50;1.00
6270;DHT22;3168;51.684;6.954;2023-09-19T02:12:31;15.50;1.00
6270;DHT22;3168;51.684;6.954;2023-09-19T02:14:57;15.40;1.00
6270;DHT22;3168;51.684;6.954;2023-09-19T02:17:23;15.40;1.00
6270;DHT22;3168;51.684;6.954;2023-09-19T02:19:48;15.40;1.00
6270;DHT22;3168;51.684;6.954;2023-09-19T02:22:14;15.40;1.00
6270;DHT22;3168;51.684;6.954;2023-09-19T02:24:40;15.30;1.00
6270;DHT22;3168;51.684;6.954;2023-09-19T02:27:06;15.30;1.00
6270;DHT22;3168;51.684;6.954;2023-09-19T02:29:31;15.40;1.00
6270;DHT22;3168;51.684;6.954;2023-09-19T02:31:58;15.30;1.00
6270;DHT22;3168;51.684;6.954;2023-09-19T02:34:31;15.30;1.00
6270;DHT22;3168;51.684;6.954;2023-09-19T02:36:57;15.30;1.00
6270;DHT22;3168;51.684;6.954;2023-09-19T02:39:23;15.30;1.00
6270;DHT22;3168;51.684;6.954;2023-09-19T02:41:49;15.30;1.00
6270;DHT22;3168;51.684;6.954;2023-09-19T02:44:15;15.30;1.00
6270;DHT22;3168;51.684;6.954;2023-09-19T02:46:40;15.20;1.00
6270;DHT22;3168;51.684;6.954;2023-09-19T02:49:06;15.20;1.00
6270;DHT22;3168;51.684;6.954;2023-09-19T02:51:32;15.20;1.00
6270;DHT22;3168;51.684;6.954;2023-09-19T02:53:59;15.30;1.00
6270;DHT22;3168;51.684;6.954;2023-09-19T02:56:25;15.40;1.00
6270;DHT22;3168;51.684;6.954;2023-09-19T02:58:51;15.40;1.00
6270;DHT22;3168;51.684;6.954;2023-09-19T03:01:17;15.40;1.00
6270;DHT22;3168;51.684;6.954;2023-09-19T03:03:43;15.40;1.00
6270;DHT22;3168;51.684;6.954;2023-09-19T03:06:09;15.40;1.00
6270;DHT22;3168;51.684;6.954;2023-09-19T03:08:36;15.40;1.00
6270;DHT22;3168;51.684;6.954;2023-09-19T03:11:03;15.40;1.00
6270;DHT22;3168;51.684;6.954;2023-09-19T03:13:29;15.40;1.00
6270;DHT22;3168;51.684;6.954;2023-09-19T03:15:55;15.40;1.00
6270;DHT22;3168;51.684;6.954;2023-09-19T03:18:21;15.30;1.00
6270;DHT22;3168;51.684;6.954;2023-09-19T03:20:52;15.20;1.00
6270;DHT22;3168;51.684;6.954;2023-09-19T03:23:17;15.20;1.00
6270;DHT22;3168;51.684;6.954;2023-09-19T03:25:43;15.20;1.00
6270;DHT22;3168;51.684;6.954;2023-09-19T03:28:09;15.10;1.00
6270;DHT22;3168;51.684;6.954;2023-09-19T03:30:35;15.20;1.00
6270;DHT22;3168;51.684;6.954;2023-09-19T03:33:02;15.10;1.00
6270;DHT22;3168;51.684;6.954;2023-09-19T03:35:28;15.10;1.00
6270;DHT22;3168;51.684;6.954;2023-09-19T03:37:54;15.10;1.00
6270;DHT22;3168;51.684;6.954;2023-09-19T03:40:20;15.00;1.00
6270;DHT22;3168;51.684;6.954;2023-09-19T03:42:45;15.00;1.00
6270;DHT22;3168;51.684;6.954;2023-09-19T03:45:11;15.00;1.00
6270;DHT22;3168;51.684;6.954;2023-09-19T03:47:38;15.00;1.00
6270;DHT22;3168;51.684;6.954;2023-09-19T03:50:05;14.90;1.00
6270;DHT22;3168;51.684;6.954;2023-09-19T03:52:30;14.90;1.00
6270;DHT22;3168;51.684;6.954;2023-09-19T03:54:56;14.90;1.00
6270;DHT22;3168;51.684;6.954;2023-09-19T03:57:22;14.90;1.00
6270;DHT22;3168;51.684;6.954;2023-09-19T03:59:47;14.90;1.00
6270;DHT22;3168;51.684;6.954;2023-09-19T04:02:13;14.90;1.00
6270;DHT22;3168;51.684;6.954;2023-09-19T04:04:39;14.90;1.00
6270;DHT22;3168;51.684;6.954;2023-09-19T04:07:06;14.80;1.00
6270;DHT22;3168;51.684;6.954;2023-09-19T04:09:31;14.80;1.00
6270;DHT22;3168;51.684;6.954;2023-09-19T04:11:57;14.70;1.00
6270;DHT22;3168;51.684;6.954;2023-09-19T04:14:23;14.80;1.00
6270;DHT22;3168;51.684;6.954;2023-09-19T04:16:49;14.80;1.00
6270;DHT22;3168;51.684;6.954;2023-09-19T04:19:14;14.80;1.00
6270;DHT22;3168;51.684;6.954;2023-09-19T04:21:40;14.90;1.00
6270;DHT22;3168;51.684;6.954;2023-09-19T04:24:06;14.90;1.00
6270;DHT22;3168;51.684;6.954;2023-09-19T04:26:32;14.80;1.00
6270;DHT22;3168;51.684;6.954;2023-09-19T04:28:58;14.80;1.00
6270;DHT22;3168;51.684;6.954;2023-09-19T04:31:24;14.80;1.00
6270;DHT22;3168;51.684;6.954;2023-09-19T04:33:49;14.70;1.00
6270;DHT22;3168;51.684;6.954;2023-09-19T04:36:15;14.80;1.00
6270;DHT22;3168;51.684;6.954;2023-09-19T04:38:41;14.80;1.00
6270;DHT22;3168;51.684;6.954;2023-09-19T04:41:07;14.70;1.00
6270;DHT22;3168;51.684;6.954;2023-09-19T04:43:33;14.80;1.00
6270;DHT22;3168;51.684;6.954;2023-09-19T04:45:58;14.90;1.00
6270;DHT22;3168;51.684;6.954;2023-09-19T04:48:24;14.80;1.00
6270;DHT22;3168;51.684;6.954;2023-09-19T04:50:50;14.70;1.00
6270;DHT22;3168;51.684;6.954;2023-09-19T04:53:17;14.70;1.00
6270;DHT22;3168;51.684;6.954;2023-09-19T04:55:42;14.80;1.00
6270;DHT22;3168;51.684;6.954;2023-09-19T04:58:07;14.70;1.00
6270;DHT22;3168;51.684;6.954;2023-09-19T05:00:33;14.80;1.00
6270;DHT22;3168;51.684;6.954;2023-09-19T05:02:59;14.70;1.00
6270;DHT22;3168;51.684;6.954;2023-09-19T05:05:25;14.70;1.00
6270;DHT22;3168;51.684;6.954;2023-09-19T05:07:51;14.70;1.00
6270;DHT22;3168;51.684;6.954;2023-09-19T05:10:17;14.80;1.00
6270;DHT22;3168;51.684;6.954;2023-09-19T05:12:42;14.70;1.00
6270;DHT22;3168;51.684;6.954;2023-09-19T05:15:08;14.70;1.00
6270;DHT22;3168;51.684;6.954;2023-09-19T05:17:34;14.80;1.00
6270;DHT22;3168;51.684;6.954;2023-09-19T05:20:00;14.80;1.00
6270;DHT22;3168;51.684;6.954;2023-09-19T05:22:27;14.80;1.00
6270;DHT22;3168;51.684;6.954;2023-09-19T05:24:53;14.80;1.00
6270;DHT22;3168;51.684;6.954;2023-09-19T05:27:19;14.70;1.00
6270;DHT22;3168;51.684;6.954;2023-09-19T05:29:44;14.80;1.00
6270;DHT22;3168;51.684;6.954;2023-09-19T05:32:11;14.70;1.00
6270;DHT22;3168;51.684;6.954;2023-09-19T05:34:36;14.60;1.00
6270;DHT22;3168;51.684;6.954;2023-09-19T05:37:02;14.70;1.00
6270;DHT22;3168;51.684;6.954;2023-09-19T05:39:28;14.70;1.00
6270;DHT22;3168;51.684;6.954;2023-09-19T05:41:54;14.80;1.00
6270;DHT22;3168;51.684;6.954;2023-09-19T05:44:19;14.80;1.00
6270;DHT22;3168;51.684;6.954;2023-09-19T05:46:45;14.80;1.00
6270;DHT22;3168;51.684;6.954;2023-09-19T05:49:11;14.80;1.00
6270;DHT22;3168;51.684;6.954;2023-09-19T05:51:37;14.80;1.00
6270;DHT22;3168;51.684;6.954;2023-09-19T05:54:03;14.90;1.00
6270;DHT22;3168;51.684;6.954;2023-09-19T05:56:29;14.90;1.00
6270;DHT22;3168;51.684;6.954;2023-09-19T05:58:54;15.00;1.00
6270;DHT22;3168;51.684;6.954;2023-09-19T06:01:20;15.10;1.00
6270;DHT22;3168;51.684;6.954;2023-09-19T06:03:46;15.10;1.00
6270;DHT22;3168;51.684;6.954;2023-09-19T06:06:12;15.10;1.00
6270;DHT22;3168;51.684;6.954;2023-09-19T06:08:37;15.10;1.00
6270;DHT22;3168;51.684;6.954;2023-09-19T06:11:03;15.30;1.00
6270;DHT22;3168;51.684;6.954;2023-09-19T06:13:29;15.30;1.00
6270;DHT22;3168;51.684;6.954;2023-09-19T06:15:55;15.10;1.00
6270;DHT22;3168;51.684;6.954;2023-09-19T06:18:21;15.20;1.00
6270;DHT22;3168;51.684;6.954;2023-09-19T06:20:47;15.20;1.00
6270;DHT22;3168;51.684;6.954;2023-09-19T06:23:12;15.20;1.00
6270;DHT22;3168;51.684;6.954;2023-09-19T06:25:38;15.30;1.00
6270;DHT22;3168;51.684;6.954;2023-09-19T06:28:04;15.30;1.00
6270;DHT22;3168;51.684;6.954;2023-09-19T06:30:30;15.30;1.00
6270;DHT22;3168;51.684;6.954;2023-09-19T06:32:57;15.30;1.00
6270;DHT22;3168;51.684;6.954;2023-09-19T06:35:22;15.30;1.00
6270;DHT22;3168;51.684;6.954;2023-09-19T06:37:48;15.40;1.00
6270;DHT22;3168;51.684;6.954;2023-09-19T06:40:14;15.40;1.00
6270;DHT22;3168;51.684;6.954;2023-09-19T06:42:41;15.40;1.00
6270;DHT22;3168;51.684;6.954;2023-09-19T06:45:07;15.40;1.00
6270;DHT22;3168;51.684;6.954;2023-09-19T06:47:33;15.50;1.00
6270;DHT22;3168;51.684;6.954;2023-09-19T06:49:58;15.50;1.00
6270;DHT22;3168;51.684;6.954;2023-09-19T06:52:24;15.60;1.00
6270;DHT22;3168;51.684;6.954;2023-09-19T06:54:50;15.60;1.00
6270;DHT22;3168;51.684;6.954;2023-09-19T06:57:16;15.50;1.00
6270;DHT22;3168;51.684;6.954;2023-09-19T06:59:42;15.40;1.00
6270;DHT22;3168;51.684;6.954;2023-09-19T07:02:07;15.60;1.00
6270;DHT22;3168;51.684;6.954;2023-09-19T07:04:34;15.60;1.00
6270;DHT22;3168;51.684;6.954;2023-09-19T07:07:00;15.60;1.00
6270;DHT22;3168;51.684;6.954;2023-09-19T07:09:26;15.60;1.00
6270;DHT22;3168;51.684;6.954;2023-09-19T07:11:54;15.70;1.00
6270;DHT22;3168;51.684;6.954;2023-09-19T07:14:19;15.70;1.00
6270;DHT22;3168;51.684;6.954;2023-09-19T07:16:45;15.70;1.00
6270;DHT22;3168;51.684;6.954;2023-09-19T07:19:10;15.70;1.00
6270;DHT22;3168;51.684;6.954;2023-09-19T07:21:36;15.80;1.00
6270;DHT22;3168;51.684;6.954;2023-09-19T07:24:02;15.80;1.00
6270;DHT22;3168;51.684;6.954;2023-09-19T07:26:28;15.80;1.00
6270;DHT22;3168;51.684;6.954;2023-09-19T07:28:54;15.90;1.00
6270;DHT22;3168;51.684;6.954;2023-09-19T07:31:20;16.00;1.00
6270;DHT22;3168;51.684;6.954;2023-09-19T07:33:46;16.00;1.00
6270;DHT22;3168;51.684;6.954;2023-09-19T07:36:12;16.00;1.00
6270;DHT22;3168;51.684;6.954;2023-09-19T07:38:39;16.00;1.00
6270;DHT22;3168;51.684;6.954;2023-09-19T07:41:05;16.00;1.00
6270;DHT22;3168;51.684;6.954;2023-09-19T07:43:30;16.00;1.00
6270;DHT22;3168;51.684;6.954;2023-09-19T07:45:56;16.00;1.00
6270;DHT22;3168;51.684;6.954;2023-09-19T07:48:22;16.00;1.00
6270;DHT22;3168;51.684;6.954;2023-09-19T07:50:48;15.90;1.00
6270;DHT22;3168;51.684;6.954;2023-09-19T07:53:14;16.10;1.00
6270;DHT22;3168;51.684;6.954;2023-09-19T07:55:40;16.10;1.00
6270;DHT22;3168;51.684;6.954;2023-09-19T07:58:05;16.20;1.00
6270;DHT22;3168;51.684;6.954;2023-09-19T08:00:31;16.20;1.00
6270;DHT22;3168;51.684;6.954;2023-09-19T08:02:57;16.20;1.00
6270;DHT22;3168;51.684;6.954;2023-09-19T08:05:23;16.40;1.00
6270;DHT22;3168;51.684;6.954;2023-09-19T08:07:48;16.50;1.00
6270;DHT22;3168;51.684;6.954;2023-09-19T08:10:14;16.50;1.00
6270;DHT22;3168;51.684;6.954;2023-09-19T08:12:42;16.70;1.00
6270;DHT22;3168;51.684;6.954;2023-09-19T08:15:15;16.60;1.00
6270;DHT22;3168;51.684;6.954;2023-09-19T08:17:40;16.70;1.00
6270;DHT22;3168;51.684;6.954;2023-09-19T08:20:07;16.70;1.00
6270;DHT22;3168;51.684;6.954;2023-09-19T08:22:33;16.70;1.00
6270;DHT22;3168;51.684;6.954;2023-09-19T08:24:59;16.80;1.00
6270;DHT22;3168;51.684;6.954;2023-09-19T08:27:24;16.90;1.00
6270;DHT22;3168;51.684;6.954;2023-09-19T08:29:51;16.80;1.00
6270;DHT22;3168;51.684;6.954;2023-09-19T08:32:17;16.90;1.00
6270;DHT22;3168;51.684;6.954;2023-09-19T08:34:43;17.10;1.00
6270;DHT22;3168;51.684;6.954;2023-09-19T08:37:08;16.90;1.00
6270;DHT22;3168;51.684;6.954;2023-09-19T08:39:34;16.90;1.00
6270;DHT22;3168;51.684;6.954;2023-09-19T08:42:00;16.90;1.00
6270;DHT22;3168;51.684;6.954;2023-09-19T08:44:26;17.00;1.00
6270;DHT22;3168;51.684;6.954;2023-09-19T08:46:54;17.00;1.00
6270;DHT22;3168;51.684;6.954;2023-09-19T08:49:23;17.20;1.00
6270;DHT22;3168;51.684;6.954;2023-09-19T08:51:45;17.20;1.00
6270;DHT22;3168;51.684;6.954;2023-09-19T08:54:17;17.30;1.00
6270;DHT22;3168;51.684;6.954;2023-09-19T08:56:38;17.40;1.00
6270;DHT22;3168;51.684;6.954;2023-09-19T08:59:04;17.40;1.00
6270;DHT22;3168;51.684;6.954;2023-09-19T09:01:30;17.40;1.00
6270;DHT22;3168;51.684;6.954;2023-09-19T09:03:56;17.60;1.00
6270;DHT22;3168;51.684;6.954;2023-09-19T09:06:21;17.30;1.00
6270;DHT22;3168;51.684;6.954;2023-09-19T09:08:47;17.40;1.00
6270;DHT22;3168;51.684;6.954;2023-09-19T09:11:13;17.40;1.00
6270;DHT22;3168;51.684;6.954;2023-09-19T09:13:39;17.40;1.00
6270;DHT22;3168;51.684;6.954;2023-09-19T09:16:05;17.50;1.00
6270;DHT22;3168;51.684;6.954;2023-09-19T09:18:30;17.60;1.00
6270;DHT22;3168;51.684;6.954;2023-09-19T09:20:56;17.40;1.00
6270;DHT22;3168;51.684;6.954;2023-09-19T09:23:22;17.40;1.00
6270;DHT22;3168;51.684;6.954;2023-09-19T09:25:54;17.60;1.00
6270;DHT22;3168;51.684;6.954;2023-09-19T09:28:22;17.70;1.00
6270;DHT22;3168;51.684;6.954;2023-09-19T09:30:47;17.80;1.00
6270;DHT22;3168;51.684;6.954;2023-09-19T09:33:14;17.90;1.00
6270;DHT22;3168;51.684;6.954;2023-09-19T09:35:49;17.90;1.00
6270;DHT22;3168;51.684;6.954;2023-09-19T09:38:15;18.00;1.00
6270;DHT22;3168;51.684;6.954;2023-09-19T09:40:46;18.00;1.00
6270;DHT22;3168;51.684;6.954;2023-09-19T09:43:24;18.00;1.00
6270;DHT22;3168;51.684;6.954;2023-09-19T09:45:37;18.00;1.00
6270;DHT22;3168;51.684;6.954;2023-09-19T09:48:03;17.90;1.00
6270;DHT22;3168;51.684;6.954;2023-09-19T09:50:30;17.90;1.00
6270;DHT22;3168;51.684;6.954;2023-09-19T09:52:56;17.90;1.00
6270;DHT22;3168;51.684;6.954;2023-09-19T09:55:21;18.10;1.00
6270;DHT22;3168;51.684;6.954;2023-09-19T09:57:48;18.10;1.00
6270;DHT22;3168;51.684;6.954;2023-09-19T10:00:13;18.30;1.00
6270;DHT22;3168;51.684;6.954;2023-09-19T10:02:42;18.50;1.00
6270;DHT22;3168;51.684;6.954;2023-09-19T10:05:12;18.70;1.00
6270;DHT22;3168;51.684;6.954;2023-09-19T10:07:37;18.50;1.00
6270;DHT22;3168;51.684;6.954;2023-09-19T10:10:04;18.40;1.00
6270;DHT22;3168;51.684;6.954;2023-09-19T10:12:31;18.50;1.00
6270;DHT22;3168;51.684;6.954;2023-09-19T10:14:56;18.50;1.00
6270;DHT22;3168;51.684;6.954;2023-09-19T10:17:22;18.30;1.00
6270;DHT22;3168;51.684;6.954;2023-09-19T10:19:54;18.50;1.00
6270;DHT22;3168;51.684;6.954;2023-09-19T10:22:18;18.50;1.00
6270;DHT22;3168;51.684;6.954;2023-09-19T10:24:45;18.40;1.00
6270;DHT22;3168;51.684;6.954;2023-09-19T10:27:10;18.30;1.00
6270;DHT22;3168;51.684;6.954;2023-09-19T10:29:36;18.30;1.00
6270;DHT22;3168;51.684;6.954;2023-09-19T10:32:03;18.30;1.00
6270;DHT22;3168;51.684;6.954;2023-09-19T10:34:28;18.20;1.00
6270;DHT22;3168;51.684;6.954;2023-09-19T10:36:54;18.40;1.00
6270;DHT22;3168;51.684;6.954;2023-09-19T10:39:20;18.40;1.00
6270;DHT22;3168;51.684;6.954;2023-09-19T10:41:49;18.40;1.00
6270;DHT22;3168;51.684;6.954;2023-09-19T10:44:13;18.60;1.00
6270;DHT22;3168;51.684;6.954;2023-09-19T10:46:38;18.60;1.00
6270;DHT22;3168;51.684;6.954;2023-09-19T10:49:05;18.80;1.00
6270;DHT22;3168;51.684;6.954;2023-09-19T10:51:33;18.80;1.00
6270;DHT22;3168;51.684;6.954;2023-09-19T10:54:08;19.00;1.00
6270;DHT22;3168;51.684;6.954;2023-09-19T10:56:34;19.10;1.00
6270;DHT22;3168;51.684;6.954;2023-09-19T10:59:14;18.90;1.00
6270;DHT22;3168;51.684;6.954;2023-09-19T11:01:43;18.80;1.00
6270;DHT22;3168;51.684;6.954;2023-09-19T11:04:21;18.70;1.00
6270;DHT22;3168;51.684;6.954;2023-09-19T11:06:58;18.70;1.00
6270;DHT22;3168;51.684;6.954;2023-09-19T11:09:12;18.80;1.00
6270;DHT22;3168;51.684;6.954;2023-09-19T11:11:43;18.70;1.00
6270;DHT22;3168;51.684;6.954;2023-09-19T11:14:14;18.90;1.00
6270;DHT22;3168;51.684;6.954;2023-09-19T11:16:39;19.00;1.00
6270;DHT22;3168;51.684;6.954;2023-09-19T11:19:05;19.00;1.00
6270;DHT22;3168;51.684;6.954;2023-09-19T11:21:40;19.10;1.00
6270;DHT22;3168;51.684;6.954;2023-09-19T11:24:27;19.20;1.00
6270;DHT22;3168;51.684;6.954;2023-09-19T11:27:08;19.40;1.00
6270;DHT22;3168;51.684;6.954;2023-09-19T11:29:24;19.40;1.00
6270;DHT22;3168;51.684;6.954;2023-09-19T11:31:49;19.40;99.90
6270;DHT22;3168;51.684;6.954;2023-09-19T11:36:54;19.40;99.90
6270;DHT22;3168;51.684;6.954;2023-09-19T11:39:25;19.30;99.90
6270;DHT22;3168;51.684;6.954;2023-09-19T11:41:51;19.30;1.00
6270;DHT22;3168;51.684;6.954;2023-09-19T11:44:32;19.30;1.00
6270;DHT22;3168;51.684;6.954;2023-09-19T11:46:57;19.40;1.00
6270;DHT22;3168;51.684;6.954;2023-09-19T11:49:26;19.40;1.00
6270;DHT22;3168;51.684;6.954;2023-09-19T11:51:52;19.60;1.00
6270;DHT22;3168;51.684;6.954;2023-09-19T11:54:17;19.60;99.90
6270;DHT22;3168;51.684;6.954;2023-09-19T11:56:44;19.70;99.90
6270;DHT22;3168;51.684;6.954;2023-09-19T11:59:09;19.60;1.00
6270;DHT22;3168;51.684;6.954;2023-09-19T12:01:35;19.70;1.00
6270;DHT22;3168;51.684;6.954;2023-09-19T12:04:01;19.70;1.00
6270;DHT22;3168;51.684;6.954;2023-09-19T12:06:27;19.70;1.00
6270;DHT22;3168;51.684;6.954;2023-09-19T12:08:53;19.80;99.90
6270;DHT22;3168;51.684;6.954;2023-09-19T12:11:20;20.00;99.90
6270;DHT22;3168;51.684;6.954;2023-09-19T12:13:46;20.00;99.90
6270;DHT22;3168;51.684;6.954;2023-09-19T12:16:15;19.90;99.90
6270;DHT22;3168;51.684;6.954;2023-09-19T12:18:41;20.10;99.90
6270;DHT22;3168;51.684;6.954;2023-09-19T12:21:08;20.10;99.90
6270;DHT22;3168;51.684;6.954;2023-09-19T12:23:34;20.30;99.90
6270;DHT22;3168;51.684;6.954;2023-09-19T12:26:01;20.40;99.90
6270;DHT22;3168;51.684;6.954;2023-09-19T12:28:26;20.50;99.90
6270;DHT22;3168;51.684;6.954;2023-09-19T12:30:51;20.30;99.90
6270;DHT22;3168;51.684;6.954;2023-09-19T12:33:18;20.30;99.90
6270;DHT22;3168;51.684;6.954;2023-09-19T12:35:45;20.40;99.90
6270;DHT22;3168;51.684;6.954;2023-09-19T12:38:13;20.50;99.90
6270;DHT22;3168;51.684;6.954;2023-09-19T12:40:37;20.40;99.90
6270;DHT22;3168;51.684;6.954;2023-09-19T12:43:03;20.20;99.90
6270;DHT22;3168;51.684;6.954;2023-09-19T12:45:30;20.30;99.90
6270;DHT22;3168;51.684;6.954;2023-09-19T12:50:34;20.40;99.90
6270;DHT22;3168;51.684;6.954;2023-09-19T12:53:00;20.40;99.90
6270;DHT22;3168;51.684;6.954;2023-09-19T12:55:28;20.60;99.90
6270;DHT22;3168;51.684;6.954;2023-09-19T13:00:32;20.60;99.90
6270;DHT22;3168;51.684;6.954;2023-09-19T13:05:47;20.90;99.90
6270;DHT22;3168;51.684;6.954;2023-09-19T13:08:19;20.60;99.90
6270;DHT22;3168;51.684;6.954;2023-09-19T13:13:23;20.70;99.90
6270;DHT22;3168;51.684;6.954;2023-09-19T13:15:52;20.60;99.90
6270;DHT22;3168;51.684;6.954;2023-09-19T13:18:18;20.60;99.90
6270;DHT22;3168;51.684;6.954;2023-09-19T13:20:44;20.70;99.90
6270;DHT22;3168;51.684;6.954;2023-09-19T13:23:25;20.60;99.90
6270;DHT22;3168;51.684;6.954;2023-09-19T13:25:35;20.60;99.90
6270;DHT22;3168;51.684;6.954;2023-09-19T13:28:01;20.50;99.90
6270;DHT22;3168;51.684;6.954;2023-09-19T13:30:27;20.70;99.90
6270;DHT22;3168;51.684;6.954;2023-09-19T13:33:05;20.80;99.90
6270;DHT22;3168;51.684;6.954;2023-09-19T13:35:31;20.90;99.90
6270;DHT22;3168;51.684;6.954;2023-09-19T13:37:56;21.00;99.90
6270;DHT22;3168;51.684;6.954;2023-09-19T13:40:22;20.90;99.90
6270;DHT22;3168;51.684;6.954;2023-09-19T13:42:48;20.80;99.90
6270;DHT22;3168;51.684;6.954;2023-09-19T13:45:14;20.70;99.90
6270;DHT22;3168;51.684;6.954;2023-09-19T13:47:40;20.70;99.90
6270;DHT22;3168;51.684;6.954;2023-09-19T13:50:06;20.50;99.90
6270;DHT22;3168;51.684;6.954;2023-09-19T13:52:32;20.50;99.90
6270;DHT22;3168;51.684;6.954;2023-09-19T13:54:58;20.60;99.90
6270;DHT22;3168;51.684;6.954;2023-09-19T13:57:24;20.50;99.90
6270;DHT22;3168;51.684;6.954;2023-09-19T13:59:50;20.30;99.90
6270;DHT22;3168;51.684;6.954;2023-09-19T14:02:16;20.30;99.90
6270;DHT22;3168;51.684;6.954;2023-09-19T14:04:41;20.30;99.90
6270;DHT22;3168;51.684;6.954;2023-09-19T14:07:07;20.40;99.90
6270;DHT22;3168;51.684;6.954;2023-09-19T14:09:33;20.40;99.90
6270;DHT22;3168;51.684;6.954;2023-09-19T14:11:59;20.40;99.90
6270;DHT22;3168;51.684;6.954;2023-09-19T14:14:25;20.30;99.90
6270;DHT22;3168;51.684;6.954;2023-09-19T14:16:51;20.20;99.90
6270;DHT22;3168;51.684;6.954;2023-09-19T14:19:17;20.10;99.90
6270;DHT22;3168;51.684;6.954;2023-09-19T14:21:43;20.00;99.90
6270;DHT22;3168;51.684;6.954;2023-09-19T14:24:09;19.90;99.90
6270;DHT22;3168;51.684;6.954;2023-09-19T14:26:35;19.90;99.90
6270;DHT22;3168;51.684;6.954;2023-09-19T14:29:01;19.80;99.90
6270;DHT22;3168;51.684;6.954;2023-09-19T14:31:27;19.90;99.90
6270;DHT22;3168;51.684;6.954;2023-09-19T14:33:54;20.20;99.90
6270;DHT22;3168;51.684;6.954;2023-09-19T14:36:20;20.30;99.90
6270;DHT22;3168;51.684;6.954;2023-09-19T14:38:46;20.40;99.90
6270;DHT22;3168;51.684;6.954;2023-09-19T14:41:12;20.40;99.90
6270;DHT22;3168;51.684;6.954;2023-09-19T14:43:37;20.20;99.90
6270;DHT22;3168;51.684;6.954;2023-09-19T14:46:05;19.90;99.90
6270;DHT22;3168;51.684;6.954;2023-09-19T14:48:31;19.90;99.90
6270;DHT22;3168;51.684;6.954;2023-09-19T14:51:01;19.90;99.90
6270;DHT22;3168;51.684;6.954;2023-09-19T14:53:23;19.90;99.90
6270;DHT22;3168;51.684;6.954;2023-09-19T14:55:48;19.90;99.90
6270;DHT22;3168;51.684;6.954;2023-09-19T14:58:14;19.90;99.90
6270;DHT22;3168;51.684;6.954;2023-09-19T15:00:40;20.10;99.90
6270;DHT22;3168;51.684;6.954;2023-09-19T15:03:06;20.20;99.90
6270;DHT22;3168;51.684;6.954;2023-09-19T15:05:32;19.90;99.90
6270;DHT22;3168;51.684;6.954;2023-09-19T15:07:58;19.90;99.90
6270;DHT22;3168;51.684;6.954;2023-09-19T15:10:24;19.90;99.90
6270;DHT22;3168;51.684;6.954;2023-09-19T15:12:50;20.10;99.90
6270;DHT22;3168;51.684;6.954;2023-09-19T15:15:16;20.20;99.90
6270;DHT22;3168;51.684;6.954;2023-09-19T15:17:41;20.20;99.90
6270;DHT22;3168;51.684;6.954;2023-09-19T15:20:07;20.10;99.90
6270;DHT22;3168;51.684;6.954;2023-09-19T15:22:34;20.10;99.90
6270;DHT22;3168;51.684;6.954;2023-09-19T15:24:59;20.10;99.90
6270;DHT22;3168;51.684;6.954;2023-09-19T15:27:25;20.20;99.90
6270;DHT22;3168;51.684;6.954;2023-09-19T15:29:51;20.30;99.90
6270;DHT22;3168;51.684;6.954;2023-09-19T15:32:17;20.30;99.90
6270;DHT22;3168;51.684;6.954;2023-09-19T15:34:43;20.60;99.90
6270;DHT22;3168;51.684;6.954;2023-09-19T15:37:09;20.60;99.90
6270;DHT22;3168;51.684;6.954;2023-09-19T15:39:36;20.40;99.90
6270;DHT22;3168;51.684;6.954;2023-09-19T15:42:03;20.10;99.90
6270;DHT22;3168;51.684;6.954;2023-09-19T15:44:29;20.00;99.90
6270;DHT22;3168;51.684;6.954;2023-09-19T15:46:55;19.90;99.90
6270;DHT22;3168;51.684;6.954;2023-09-19T15:49:21;20.00;99.90
6270;DHT22;3168;51.684;6.954;2023-09-19T15:51:47;20.00;99.90
6270;DHT22;3168;51.684;6.954;2023-09-19T15:54:13;19.90;99.90
6270;DHT22;3168;51.684;6.954;2023-09-19T15:56:41;19.90;99.90
6270;DHT22;3168;51.684;6.954;2023-09-19T15:59:07;19.80;99.90
6270;DHT22;3168;51.684;6.954;2023-09-19T16:01:33;19.70;99.90
6270;DHT22;3168;51.684;6.954;2023-09-19T16:03:59;19.60;99.90
6270;DHT22;3168;51.684;6.954;2023-09-19T16:06:25;19.60;99.90
6270;DHT22;3168;51.684;6.954;2023-09-19T16:08:51;19.60;99.90
6270;DHT22;3168;51.684;6.954;2023-09-19T16:11:16;19.60;99.90
6270;DHT22;3168;51.684;6.954;2023-09-19T16:13:43;19.60;99.90
6270;DHT22;3168;51.684;6.954;2023-09-19T16:16:09;19.60;99.90
6270;DHT22;3168;51.684;6.954;2023-09-19T16:18:35;19.60;99.90
6270;DHT22;3168;51.684;6.954;2023-09-19T16:21:02;19.60;99.90
6270;DHT22;3168;51.684;6.954;2023-09-19T16:23:28;19.60;99.90
6270;DHT22;3168;51.684;6.954;2023-09-19T16:26:01;19.60;99.90